Time;durP1;ratioP1;P1;durP2;ratioP2;P2;SDS_P1;SDS_P2;PMS_P1;PMS_P2;Temp;Humidity;BMP_temperature;BMP_pressure;BME280_temperature;BME280_humidity;BME280_pressure;Samples;Min_cycle;Max_cycle;Signal;HPM_P1;HPM_P2
2022/06/04 00:01:26;;;;;;;3.60;1.90;;;24.10;58.40;;;;;;5094169;28;20386;-65
2022/06/04 00:03:52;;;;;;;3.00;2.23;;;24.10;58.40;;;;;;5093851;28;20939;-65
2022/06/04 00:06:18;;;;;;;2.92;2.10;;;24.00;58.10;;;;;;5093961;28;20382;-65
2022/06/04 00:08:44;;;;;;;2.50;2.00;;;24.00;58.20;;;;;;5093706;28;20746;-65
2022/06/04 00:16:37;;;;;;;2.70;1.90;;;24.00;58.20;;;;;;5093682;28;20389;-65
2022/06/04 00:19:03;;;;;;;2.30;1.93;;;24.00;57.90;;;;;;5093094;28;20386;-65
2022/06/04 00:21:29;;;;;;;2.67;1.90;;;24.00;58.20;;;;;;5093620;28;20473;-65
2022/06/04 00:23:55;;;;;;;2.40;1.80;;;24.00;58.00;;;;;;5093488;28;20431;-65
2022/06/04 00:26:21;;;;;;;2.90;2.00;;;24.00;58.10;;;;;;5093260;28;20382;-65
2022/06/04 00:28:47;;;;;;;2.85;1.83;;;24.00;58.10;;;;;;5093400;28;20413;-65
2022/06/04 00:31:15;;;;;;;2.40;1.80;;;24.00;58.10;;;;;;5093387;28;20465;-65
2022/06/04 00:33:40;;;;;;;2.35;1.80;;;24.00;58.10;;;;;;5093238;28;20378;-65
2022/06/04 00:36:06;;;;;;;2.20;1.90;;;24.00;58.10;;;;;;5093190;28;20392;-65
2022/06/04 00:38:33;;;;;;;2.40;1.90;;;23.90;58.20;;;;;;5091811;28;20382;-65
2022/06/04 00:41:25;;;;;;;2.42;1.90;;;23.90;58.00;;;;;;5091486;28;20447;-65
2022/06/04 00:44:02;;;;;;;2.47;1.80;;;23.90;58.10;;;;;;5084857;28;20386;-65
2022/06/04 00:46:40;;;;;;;2.50;1.98;;;24.00;58.10;;;;;;5092949;28;20410;-65
2022/06/04 00:49:10;;;;;;;2.90;2.28;;;23.90;58.00;;;;;;5092396;28;20440;-65
2022/06/04 00:51:36;;;;;;;2.75;1.95;;;23.90;58.00;;;;;;5093048;28;20386;-65
2022/06/04 00:54:03;;;;;;;2.70;2.00;;;23.90;57.90;;;;;;5091011;28;20809;-65
2022/06/04 00:56:57;;;;;;;2.30;2.10;;;23.90;58.00;;;;;;5092823;28;20473;-65
2022/06/04 00:59:38;;;;;;;2.75;1.80;;;23.90;58.00;;;;;;5055327;28;20424;-66
2022/06/04 01:02:30;;;;;;;2.80;1.83;;;23.90;58.00;;;;;;5092750;28;20397;-65
2022/06/04 01:05:04;;;;;;;1.90;1.60;;;23.90;57.90;;;;;;5092245;28;20863;-65
2022/06/04 01:07:49;;;;;;;2.10;1.90;;;23.90;57.90;;;;;;5092712;28;20458;-65
2022/06/04 01:10:37;;;;;;;2.30;1.80;;;23.90;57.90;;;;;;5092565;28;20417;-65
2022/06/04 01:13:20;;;;;;;2.55;2.10;;;23.90;57.90;;;;;;5071287;28;20385;-65
2022/06/04 01:16:07;;;;;;;2.60;1.80;;;23.90;57.90;;;;;;5092523;28;20393;-65
2022/06/04 01:18:58;;;;;;;2.88;1.80;;;23.90;57.80;;;;;;5092497;28;20370;-65
2022/06/04 01:21:42;;;;;;;2.22;1.85;;;23.90;58.40;;;;;;5092470;28;20784;-65
2022/06/04 01:24:38;;;;;;;2.85;1.80;;;23.90;57.90;;;;;;5092319;28;20778;-65
2022/06/04 01:27:14;;;;;;;2.90;1.90;;;23.80;57.70;;;;;;5091766;28;20425;-65
2022/06/04 01:29:57;;;;;;;2.10;1.90;;;23.80;57.80;;;;;;5091682;28;20438;-65
2022/06/04 01:32:29;;;;;;;2.47;1.90;;;23.90;57.80;;;;;;5092210;28;20382;-65
2022/06/04 01:35:04;;;;;;;2.90;1.80;;;23.90;57.80;;;;;;5091730;28;20397;-65
2022/06/04 01:37:39;;;;;;;2.95;1.90;;;23.80;57.70;;;;;;5092226;28;20385;-65
2022/06/04 01:42:56;;;;;;;3.13;1.98;;;23.80;57.70;;;;;;5090987;28;20477;-65
2022/06/04 01:45:25;;;;;;;2.78;1.70;;;23.80;57.80;;;;;;5092018;28;20385;-65
2022/06/04 01:47:53;;;;;;;4.05;1.90;;;23.80;57.80;;;;;;5091984;28;20374;-65
2022/06/04 01:50:22;;;;;;;2.45;2.20;;;23.80;57.80;;;;;;5091848;28;20422;-65
2022/06/04 01:52:49;;;;;;;2.35;1.85;;;23.80;57.80;;;;;;5090465;28;20485;-65
2022/06/04 01:55:22;;;;;;;3.63;2.00;;;23.80;57.70;;;;;;5091531;28;20753;-65
2022/06/04 01:58:00;;;;;;;2.25;1.75;;;23.80;57.70;;;;;;5091841;28;20382;-65
2022/06/04 02:00:30;;;;;;;2.15;1.70;;;23.80;57.50;;;;;;5091986;28;20400;-65
2022/06/04 02:03:01;;;;;;;2.40;1.90;;;23.80;57.60;;;;;;5091497;28;20400;-65
2022/06/04 02:05:49;;;;;;;3.05;2.00;;;23.80;57.70;;;;;;5091251;28;20374;-65
2022/06/04 02:08:22;;;;;;;2.72;2.05;;;23.80;57.70;;;;;;5091784;28;20738;-65
2022/06/04 02:11:13;;;;;;;2.38;1.95;;;23.80;57.60;;;;;;5091594;28;20422;-65
2022/06/04 02:13:40;;;;;;;2.45;1.80;;;23.80;57.60;;;;;;5091713;28;20402;-65
2022/06/04 02:16:31;;;;;;;2.95;1.90;;;23.80;57.90;;;;;;5091647;28;20394;-65
2022/06/04 02:18:58;;;;;;;2.65;1.80;;;23.70;57.60;;;;;;5091260;28;20463;-65
2022/06/04 02:21:27;;;;;;;2.67;1.90;;;23.80;57.70;;;;;;5091525;28;20374;-65
2022/06/04 02:23:54;;;;;;;2.15;1.73;;;23.80;57.70;;;;;;5091497;28;20489;-65
2022/06/04 02:26:20;;;;;;;2.28;1.90;;;23.70;57.60;;;;;;5091573;28;20393;-65
2022/06/04 02:28:46;;;;;;;2.13;1.77;;;23.80;57.60;;;;;;5091370;28;20386;-65
2022/06/04 02:31:50;;;;;;;3.00;2.03;;;23.80;57.60;;;;;;5090802;28;20942;-65
2022/06/04 02:34:30;;;;;;;2.53;2.00;;;23.70;57.60;;;;;;5091473;28;20367;-65
2022/06/04 02:37:25;;;;;;;2.50;2.00;;;23.70;57.60;;;;;;5091164;28;20386;-65
2022/06/04 02:40:03;;;;;;;2.90;2.05;;;23.70;57.60;;;;;;5074184;28;20383;-65
2022/06/04 02:42:46;;;;;;;3.15;2.08;;;23.70;57.50;;;;;;5091376;28;20386;-65
2022/06/04 02:45:45;;;;;;;2.80;1.80;;;23.70;57.50;;;;;;5090707;28;20374;-65
2022/06/04 02:48:37;;;;;;;2.70;2.03;;;23.70;57.60;;;;;;5085023;28;20421;-65
2022/06/04 02:51:14;;;;;;;4.07;2.17;;;23.70;57.50;;;;;;5090855;28;20405;-65
2022/06/04 02:53:41;;;;;;;3.28;2.25;;;23.70;57.50;;;;;;5089843;28;20949;-65
2022/06/04 02:56:11;;;;;;;3.08;1.90;;;23.70;57.50;;;;;;5091166;28;20493;-65
2022/06/04 02:58:39;;;;;;;2.80;2.00;;;23.70;57.60;;;;;;5091142;28;20789;-65
2022/06/04 03:01:09;;;;;;;3.30;2.17;;;23.70;57.50;;;;;;5090673;28;20485;-65
2022/06/04 03:03:35;;;;;;;2.40;2.20;;;23.70;57.50;;;;;;5091224;28;20421;-65
2022/06/04 03:06:06;;;;;;;3.70;2.15;;;23.70;57.50;;;;;;5090316;28;20810;-65
2022/06/04 03:08:33;;;;;;;2.33;2.00;;;23.70;57.50;;;;;;5091064;28;20378;-65
2022/06/04 03:10:59;;;;;;;3.08;2.00;;;23.70;57.50;;;;;;5090843;28;20402;-65
2022/06/04 03:13:25;;;;;;;2.38;1.88;;;23.60;57.50;;;;;;5089835;28;20969;-65
2022/06/04 03:15:51;;;;;;;2.22;2.00;;;23.70;57.50;;;;;;5089714;28;20481;-65
2022/06/04 03:18:18;;;;;;;2.78;2.03;;;23.70;57.50;;;;;;5093573;28;20405;-65
2022/06/04 03:20:43;;;;;;;2.50;2.10;;;23.60;57.50;;;;;;5094805;28;20394;-65
2022/06/04 03:23:10;;;;;;;2.63;1.90;;;23.60;57.40;;;;;;5094293;28;20437;-65
2022/06/04 03:25:38;;;;;;;2.63;2.00;;;23.60;57.40;;;;;;5094651;28;20397;-65
2022/06/04 03:28:05;;;;;;;2.58;1.90;;;23.60;57.50;;;;;;5093395;28;20398;-65
2022/06/04 03:30:31;;;;;;;2.88;2.10;;;23.60;57.40;;;;;;5094566;28;20475;-65
2022/06/04 03:32:57;;;;;;;2.45;1.83;;;23.60;57.40;;;;;;5094004;28;20411;-65
2022/06/04 03:35:24;;;;;;;3.38;1.88;;;23.60;57.50;;;;;;5094276;28;20390;-65
2022/06/04 03:37:50;;;;;;;3.65;1.98;;;23.60;57.50;;;;;;5094488;28;20391;-65
2022/06/04 03:40:16;;;;;;;2.25;1.88;;;23.60;57.40;;;;;;5094025;28;20433;-65
2022/06/04 03:42:42;;;;;;;2.65;2.10;;;23.60;57.50;;;;;;5094306;28;20385;-65
2022/06/04 03:45:10;;;;;;;2.53;1.90;;;23.60;57.40;;;;;;5093870;28;20788;-65
2022/06/04 03:47:39;;;;;;;2.28;1.88;;;23.60;57.40;;;;;;5093037;28;20405;-65
2022/06/04 03:50:09;;;;;;;3.15;2.13;;;23.60;57.40;;;;;;5092830;28;20417;-65
2022/06/04 03:52:35;;;;;;;3.30;2.20;;;23.60;57.40;;;;;;5093957;28;20394;-65
2022/06/04 03:55:01;;;;;;;2.90;2.20;;;23.60;57.50;;;;;;5092600;28;20402;-65
2022/06/04 03:57:37;;;;;;;2.28;2.00;;;23.60;57.30;;;;;;5093842;28;20393;-65
2022/06/04 04:00:23;;;;;;;2.42;1.90;;;23.60;57.40;;;;;;5092713;28;20387;-65
2022/06/04 04:03:01;;;;;;;2.47;2.13;;;23.60;57.40;;;;;;5092050;28;20387;-65
2022/06/04 04:05:33;;;;;;;3.27;2.00;;;23.60;57.40;;;;;;5093004;28;20470;-65
2022/06/04 04:07:59;;;;;;;2.85;2.15;;;23.60;57.40;;;;;;5093741;28;20390;-65
2022/06/04 04:10:27;;;;;;;2.03;1.83;;;23.60;57.30;;;;;;5093754;28;20890;-65
2022/06/04 04:12:53;;;;;;;2.38;2.00;;;23.60;57.40;;;;;;5093735;28;20382;-65
2022/06/04 04:15:19;;;;;;;3.05;2.25;;;23.60;57.40;;;;;;5093262;28;20382;-65
2022/06/04 04:17:46;;;;;;;2.20;2.00;;;23.60;57.30;;;;;;5093772;28;20390;-65
2022/06/04 04:20:16;;;;;;;2.55;1.90;;;23.60;57.40;;;;;;5093729;28;20386;-65
2022/06/04 04:22:42;;;;;;;2.60;2.00;;;23.60;57.30;;;;;;5093746;28;20466;-65
2022/06/04 04:25:08;;;;;;;3.67;2.00;;;23.60;57.30;;;;;;5093099;28;20398;-65
2022/06/04 04:27:34;;;;;;;2.72;2.17;;;23.60;57.40;;;;;;5093411;28;20750;-65
2022/06/04 04:30:00;;;;;;;2.90;2.03;;;23.60;57.40;;;;;;5092582;28;20418;-65
2022/06/04 04:32:26;;;;;;;2.63;1.90;;;23.60;57.40;;;;;;5092139;28;20388;-65
2022/06/04 04:34:52;;;;;;;2.83;1.80;;;23.60;57.40;;;;;;5093144;28;20384;-65
2022/06/04 04:37:18;;;;;;;3.17;2.00;;;23.60;57.30;;;;;;5092860;28;20473;-65
2022/06/04 04:39:43;;;;;;;2.58;2.10;;;23.60;57.50;;;;;;5093243;28;20385;-65
2022/06/04 04:42:09;;;;;;;2.10;1.80;;;23.60;57.40;;;;;;5093246;28;21039;-65
2022/06/04 04:44:35;;;;;;;2.72;1.98;;;23.60;57.40;;;;;;5093162;28;20393;-65
2022/06/04 04:47:00;;;;;;;3.53;2.10;;;23.60;57.40;;;;;;5093064;28;20393;-65
2022/06/04 04:49:27;;;;;;;2.47;1.90;;;23.60;57.40;;;;;;5092657;28;20418;-65
2022/06/04 04:51:52;;;;;;;4.50;2.30;;;23.60;57.40;;;;;;5092970;28;20382;-64
2022/06/04 04:54:18;;;;;;;3.28;2.00;;;23.60;57.60;;;;;;5092823;28;20409;-65
2022/06/04 04:56:44;;;;;;;5.73;2.30;;;23.60;58.20;;;;;;5092973;28;20440;-65
2022/06/04 04:59:10;;;;;;;8.68;4.95;;;23.70;56.80;;;;;;5092400;28;20777;-65
2022/06/04 05:01:36;;;;;;;6.95;4.20;;;23.70;59.80;;;;;;5092764;28;20413;-65
2022/06/04 05:04:02;;;;;;;7.85;3.50;;;23.80;59.40;;;;;;5092143;28;20759;-64
2022/06/04 05:06:28;;;;;;;8.23;3.60;;;23.80;59.10;;;;;;5092195;28;20390;-64
2022/06/04 05:08:54;;;;;;;5.57;3.20;;;23.80;60.00;;;;;;5091991;28;20387;-64
2022/06/04 05:11:23;;;;;;;5.10;3.20;;;23.80;59.70;;;;;;5091956;28;20398;-64
2022/06/04 05:13:49;;;;;;;6.10;2.90;;;23.80;59.40;;;;;;5092559;28;20850;-65
2022/06/04 05:16:20;;;;;;;4.72;3.35;;;23.80;58.80;;;;;;5092210;28;20389;-65
2022/06/04 05:18:46;;;;;;;3.78;2.80;;;23.80;59.20;;;;;;5092485;28;20384;-63
2022/06/04 05:21:24;;;;;;;4.50;2.90;;;23.80;59.30;;;;;;5090661;28;20873;-63
2022/06/04 05:23:53;;;;;;;5.07;2.53;;;23.80;59.50;;;;;;5092195;28;20427;-63
2022/06/04 05:26:18;;;;;;;4.07;2.40;;;23.80;59.10;;;;;;5092220;28;20378;-64
2022/06/04 05:28:45;;;;;;;4.13;2.40;;;23.80;59.00;;;;;;5092262;28;20858;-64
2022/06/04 05:31:11;;;;;;;3.22;2.03;;;23.80;58.90;;;;;;5091683;28;20429;-63
2022/06/04 05:33:37;;;;;;;3.60;2.22;;;23.90;57.30;;;;;;5092155;28;20414;-64
2022/06/04 05:36:03;;;;;;;4.95;2.05;;;23.80;58.70;;;;;;5091977;28;20394;-64
2022/06/04 05:38:34;;;;;;;6.57;2.25;;;23.80;58.50;;;;;;5092315;28;20382;-64
2022/06/04 05:41:02;;;;;;;4.68;2.10;;;23.80;58.70;;;;;;5091891;28;20738;-64
2022/06/04 05:43:29;;;;;;;4.57;2.22;;;23.80;58.60;;;;;;5091548;28;20390;-64
2022/06/04 05:46:04;;;;;;;4.78;2.40;;;23.80;58.60;;;;;;5091819;28;20378;-64
2022/06/04 05:48:30;;;;;;;3.30;2.10;;;23.90;58.40;;;;;;5092052;28;21043;-64
2022/06/04 05:50:57;;;;;;;3.85;1.98;;;23.90;58.30;;;;;;5091740;28;20897;-64
2022/06/04 05:53:24;;;;;;;5.55;2.10;;;23.90;58.20;;;;;;5091382;28;20394;-64
2022/06/04 05:55:50;;;;;;;4.20;2.10;;;23.90;58.30;;;;;;5091659;28;20816;-64
2022/06/04 05:58:16;;;;;;;5.18;2.30;;;23.90;58.40;;;;;;5091792;28;20742;-64
2022/06/04 06:00:42;;;;;;;2.67;2.00;;;23.90;58.40;;;;;;5091779;28;20390;-64
2022/06/04 06:03:08;;;;;;;3.38;2.17;;;23.90;58.40;;;;;;5091449;28;20394;-64
2022/06/04 06:05:34;;;;;;;4.40;2.23;;;23.90;58.70;;;;;;5091437;28;20796;-64
2022/06/04 06:08:00;;;;;;;3.20;2.05;;;23.90;58.40;;;;;;5091661;28;20382;-64
2022/06/04 06:10:26;;;;;;;3.73;2.10;;;23.90;58.40;;;;;;5091603;28;20444;-64
2022/06/04 06:12:53;;;;;;;4.00;2.10;;;24.00;58.90;;;;;;5091569;28;20393;-64
2022/06/04 06:15:19;;;;;;;5.40;2.10;;;24.00;58.50;;;;;;5091101;28;20506;-64
2022/06/04 06:17:46;;;;;;;4.30;2.03;;;24.00;58.60;;;;;;5091562;28;20409;-65
2022/06/04 06:20:12;;;;;;;3.83;1.97;;;24.00;58.70;;;;;;5091267;28;20883;-64
2022/06/04 06:22:37;;;;;;;4.85;2.15;;;24.00;59.10;;;;;;5090174;28;20436;-64
2022/06/04 06:25:05;;;;;;;5.85;2.30;;;24.00;59.00;;;;;;5091470;28;20428;-64
2022/06/04 06:27:32;;;;;;;3.15;2.28;;;24.00;58.60;;;;;;5091201;28;20393;-64
2022/06/04 06:29:58;;;;;;;4.95;2.20;;;24.10;58.70;;;;;;5091315;28;20413;-64
2022/06/04 06:32:24;;;;;;;4.38;2.17;;;24.00;58.80;;;;;;5091356;28;20461;-64
2022/06/04 06:34:50;;;;;;;3.53;2.10;;;24.10;58.70;;;;;;5091418;28;20800;-64
2022/06/04 06:37:16;;;;;;;5.22;2.38;;;24.10;58.80;;;;;;5090920;28;20386;-64
2022/06/04 06:39:42;;;;;;;5.03;2.30;;;24.10;58.80;;;;;;5091303;28;20469;-64
2022/06/04 06:42:07;;;;;;;5.97;2.40;;;24.10;58.90;;;;;;5091291;28;20447;-64
2022/06/04 06:44:33;;;;;;;6.10;2.55;;;24.10;58.90;;;;;;5091336;28;20435;-64
2022/06/04 06:46:59;;;;;;;5.00;2.50;;;24.10;58.80;;;;;;5091247;28;20398;-64
2022/06/04 06:49:27;;;;;;;4.63;2.42;;;24.20;58.90;;;;;;5090733;28;20490;-64
2022/06/04 06:51:56;;;;;;;3.10;2.20;;;24.20;58.70;;;;;;5091680;28;20398;-65
2022/06/04 06:54:24;;;;;;;5.80;2.50;;;24.20;58.90;;;;;;5093850;28;20410;-65
2022/06/04 06:56:51;;;;;;;5.00;2.38;;;24.20;59.20;;;;;;5095144;28;20398;-65
2022/06/04 06:59:21;;;;;;;5.30;2.50;;;24.20;58.90;;;;;;5094647;28;20962;-65
2022/06/04 07:01:48;;;;;;;4.77;2.90;;;24.20;58.90;;;;;;5095072;28;20885;-65
2022/06/04 07:04:14;;;;;;;5.78;2.55;;;24.20;58.90;;;;;;5094954;28;20394;-65
2022/06/04 07:06:43;;;;;;;6.63;2.60;;;24.20;58.90;;;;;;5093692;28;20405;-65
2022/06/04 07:09:16;;;;;;;5.75;2.35;;;24.20;58.70;;;;;;5094785;28;20434;-66
2022/06/04 07:11:41;;;;;;;7.35;2.45;;;24.20;58.70;;;;;;5094953;28;20837;-65
2022/06/04 07:14:07;;;;;;;5.87;2.40;;;24.20;58.70;;;;;;5094685;28;20370;-66
2022/06/04 07:16:33;;;;;;;5.90;2.22;;;24.20;58.50;;;;;;5094845;28;20382;-66
2022/06/04 07:19:00;;;;;;;5.53;2.20;;;24.20;58.50;;;;;;5093405;28;20396;-66
2022/06/04 07:21:26;;;;;;;5.55;2.38;;;24.20;58.50;;;;;;5093238;28;20447;-65
2022/06/04 07:23:53;;;;;;;4.70;2.45;;;24.20;58.60;;;;;;5094304;28;20423;-65
2022/06/04 07:26:19;;;;;;;4.75;2.47;;;24.20;58.50;;;;;;5094636;28;20397;-65
2022/06/04 07:28:45;;;;;;;5.32;2.47;;;24.20;58.60;;;;;;5094232;28;20386;-65
2022/06/04 07:31:12;;;;;;;4.78;2.40;;;24.20;58.70;;;;;;5094311;28;20539;-65
2022/06/04 07:33:38;;;;;;;4.40;2.20;;;24.20;58.60;;;;;;5094091;28;20414;-65
2022/06/04 07:36:05;;;;;;;3.83;2.40;;;24.30;58.70;;;;;;5094328;28;20390;-65
2022/06/04 07:38:30;;;;;;;4.45;2.45;;;24.30;58.60;;;;;;5087646;28;20392;-65
2022/06/04 07:40:56;;;;;;;5.80;2.10;;;24.30;58.40;;;;;;5092901;28;20830;-66
2022/06/04 07:43:22;;;;;;;5.03;2.30;;;24.20;58.30;;;;;;5092669;28;20389;-66
2022/06/04 07:45:48;;;;;;;3.97;2.20;;;24.30;58.30;;;;;;5092882;28;20390;-65
2022/06/04 07:48:13;;;;;;;3.60;2.30;;;24.30;58.20;;;;;;5092859;28;20386;-66
2022/06/04 07:50:39;;;;;;;4.30;2.20;;;24.30;58.70;;;;;;5091939;28;20420;-66
2022/06/04 07:53:07;;;;;;;4.60;2.30;;;24.30;58.10;;;;;;5092665;28;20882;-67
2022/06/04 07:55:36;;;;;;;3.10;1.98;;;24.30;58.00;;;;;;5092283;28;20405;-66
2022/06/04 07:58:02;;;;;;;3.10;2.17;;;24.30;57.90;;;;;;5094130;28;20386;-66
2022/06/04 08:00:28;;;;;;;2.85;2.13;;;24.30;57.90;;;;;;5094102;28;20470;-66
2022/06/04 08:02:54;;;;;;;2.67;2.03;;;24.30;57.80;;;;;;5093665;28;20495;-66
2022/06/04 08:05:20;;;;;;;3.10;2.00;;;24.30;57.80;;;;;;5092435;28;20428;-66
2022/06/04 08:07:46;;;;;;;4.37;2.10;;;24.30;57.70;;;;;;5093851;28;20396;-65
2022/06/04 08:10:12;;;;;;;3.33;2.10;;;24.30;57.60;;;;;;5093769;28;20493;-65
2022/06/04 08:12:47;;;;;;;3.50;2.30;;;24.30;57.60;;;;;;5093800;28;20426;-65
2022/06/04 08:15:14;;;;;;;4.85;2.22;;;24.30;57.60;;;;;;5092176;28;20781;-65
2022/06/04 08:17:40;;;;;;;2.67;2.17;;;24.30;57.50;;;;;;5093446;28;20409;-66
2022/06/04 08:20:07;;;;;;;3.88;2.22;;;24.30;57.50;;;;;;5093593;28;20763;-65
2022/06/04 08:22:32;;;;;;;3.13;2.10;;;24.30;57.40;;;;;;5092583;28;20936;-65
2022/06/04 08:24:58;;;;;;;4.10;2.57;;;24.30;57.40;;;;;;5093385;28;20431;-65
2022/06/04 08:27:24;;;;;;;2.65;2.30;;;24.30;57.30;;;;;;5091444;28;20446;-66
2022/06/04 08:29:50;;;;;;;3.27;2.40;;;24.30;57.30;;;;;;5093083;28;20406;-66
2022/06/04 08:32:16;;;;;;;3.17;2.47;;;24.30;57.30;;;;;;5093017;28;20386;-66
2022/06/04 08:34:42;;;;;;;3.70;2.20;;;24.30;57.30;;;;;;5092977;28;20476;-66
2022/06/04 08:37:07;;;;;;;2.95;2.35;;;24.30;57.20;;;;;;5092938;28;20385;-66
2022/06/04 08:39:34;;;;;;;2.93;2.17;;;24.30;56.90;;;;;;5092494;28;20381;-66
2022/06/04 08:42:09;;;;;;;2.97;1.95;;;24.30;57.00;;;;;;5092818;28;20390;-66
2022/06/04 08:44:42;;;;;;;2.72;2.03;;;24.30;56.90;;;;;;5092671;28;21216;-66
2022/06/04 08:47:18;;;;;;;3.35;2.22;;;24.30;56.80;;;;;;5091013;28;20382;-65
2022/06/04 08:50:04;;;;;;;3.65;2.00;;;24.30;56.70;;;;;;5092642;28;20406;-65
2022/06/04 08:52:32;;;;;;;2.88;2.20;;;24.30;56.70;;;;;;5092885;28;20510;-66
2022/06/04 08:58:15;;;;;;;2.67;2.28;;;24.30;56.60;;;;;;5093021;28;20547;-65
2022/06/04 09:00:48;;;;;;;2.53;2.22;;;24.30;56.60;;;;;;5092884;28;20378;-66
2022/06/04 09:03:37;;;;;;;2.72;2.22;;;24.30;56.60;;;;;;5092863;28;20377;-66
2022/06/04 09:06:41;;;;;;;3.13;2.20;;;24.30;56.60;;;;;;5092867;28;20408;-66
2022/06/04 09:09:25;;;;;;;5.10;2.50;;;24.30;56.60;;;;;;5092360;28;20404;-66
2022/06/04 09:11:58;;;;;;;8.30;4.68;;;24.30;56.70;;;;;;5092591;28;20409;-66
2022/06/04 09:14:38;;;;;;;14.57;7.60;;;24.30;57.30;;;;;;5092538;28;20378;-65
2022/06/04 09:17:14;;;;;;;7.30;3.83;;;24.40;58.90;;;;;;5092504;28;20394;-66
2022/06/04 09:19:42;;;;;;;9.68;4.25;;;24.40;58.40;;;;;;5092052;28;20534;-66
2022/06/04 09:22:22;;;;;;;7.22;3.80;;;24.40;58.70;;;;;;5092199;28;20472;-65
2022/06/04 09:24:48;;;;;;;8.40;3.57;;;24.40;59.00;;;;;;5092262;28;20608;-65
2022/06/04 09:27:32;;;;;;;9.10;3.40;;;24.50;58.50;;;;;;5092307;28;20405;-65
2022/06/04 09:30:29;;;;;;;6.18;3.42;;;24.50;58.40;;;;;;5092053;28;20981;-65
2022/06/04 09:33:12;;;;;;;7.97;3.40;;;24.50;58.30;;;;;;5092022;28;20917;-65
2022/06/04 09:35:40;;;;;;;6.05;3.33;;;24.50;58.20;;;;;;5090436;28;20443;-65
2022/06/04 09:38:23;;;;;;;6.03;3.15;;;24.50;58.10;;;;;;5092065;28;20394;-65
2022/06/04 09:40:56;;;;;;;5.35;3.42;;;24.50;57.90;;;;;;5092046;28;20382;-65
2022/06/04 09:43:22;;;;;;;7.93;3.35;;;24.50;57.90;;;;;;5090454;28;20391;-65
2022/06/04 09:45:55;;;;;;;4.83;3.10;;;24.50;57.90;;;;;;5092050;28;20897;-65
2022/06/04 09:48:27;;;;;;;6.13;2.97;;;24.50;57.50;;;;;;5092120;28;20386;-66
2022/06/04 09:50:56;;;;;;;6.07;3.20;;;24.50;57.50;;;;;;5091902;28;20406;-66
2022/06/04 09:53:25;;;;;;;5.53;3.03;;;24.50;57.40;;;;;;5091519;28;20489;-66
2022/06/04 09:56:09;;;;;;;5.83;2.90;;;24.50;57.20;;;;;;5091782;28;20964;-66
2022/06/04 09:58:46;;;;;;;4.70;3.00;;;24.50;57.30;;;;;;5091846;28;20400;-66
2022/06/04 10:01:18;;;;;;;5.03;2.90;;;24.50;57.30;;;;;;5091624;28;20422;-65
2022/06/04 10:03:57;;;;;;;4.88;2.80;;;24.50;57.20;;;;;;5091181;28;20435;-66
2022/06/04 10:06:26;;;;;;;4.90;2.40;;;24.50;57.00;;;;;;5091703;28;20380;-66
2022/06/04 10:11:56;;;;;;;5.90;2.75;;;24.50;57.00;;;;;;5091020;28;20436;-66
2022/06/04 10:14:42;;;;;;;4.57;2.63;;;24.50;56.80;;;;;;5090324;28;20390;-66
2022/06/04 10:17:21;;;;;;;4.88;2.80;;;24.50;56.70;;;;;;5091598;28;20858;-66
2022/06/04 10:19:54;;;;;;;4.50;2.47;;;24.50;56.70;;;;;;5089827;28;20398;-65
2022/06/04 10:22:20;;;;;;;4.40;2.60;;;24.50;56.60;;;;;;5090016;28;20398;-66
2022/06/04 10:24:56;;;;;;;3.60;2.70;;;24.50;56.50;;;;;;5091369;28;20473;-66
2022/06/04 10:27:47;;;;;;;3.25;2.50;;;24.40;56.60;;;;;;5090352;28;20519;-66
2022/06/04 10:30:16;;;;;;;4.90;2.90;;;24.40;56.40;;;;;;5091275;28;20417;-66
2022/06/04 10:33:03;;;;;;;3.87;2.60;;;24.50;56.40;;;;;;5091282;28;20446;-66
2022/06/04 10:35:43;;;;;;;3.97;2.50;;;24.40;56.40;;;;;;5090721;28;20385;-66
2022/06/04 10:38:31;;;;;;;4.03;2.60;;;24.40;56.40;;;;;;5091298;28;20374;-66
2022/06/04 10:41:03;;;;;;;4.75;2.58;;;24.40;56.40;;;;;;5091311;28;20389;-66
2022/06/04 10:43:59;;;;;;;4.13;2.70;;;24.40;56.40;;;;;;5089426;28;20382;-66
2022/06/04 10:46:43;;;;;;;4.20;2.70;;;24.40;56.10;;;;;;5089326;28;20436;-66
2022/06/04 10:49:27;;;;;;;2.78;2.35;;;24.40;56.00;;;;;;5078837;28;20750;-66
2022/06/04 10:52:16;;;;;;;4.00;2.60;;;24.40;56.10;;;;;;5091011;28;20390;-66
2022/06/04 10:54:44;;;;;;;3.67;2.50;;;24.40;56.10;;;;;;5090780;28;20386;-65
2022/06/04 10:57:21;;;;;;;4.67;2.67;;;24.40;56.00;;;;;;5107729;28;20457;-68
2022/06/04 11:00:25;;;;;;;3.80;2.80;;;24.40;56.30;;;;;;5096094;28;20376;-66
2022/06/04 11:03:00;;;;;;;4.30;2.40;;;24.40;56.10;;;;;;5078235;28;20389;-65
2022/06/04 11:05:45;;;;;;;3.15;2.40;;;24.40;56.40;;;;;;5101544;28;20374;-66
2022/06/04 11:08:11;;;;;;;3.13;2.20;;;24.50;56.40;;;;;;5103693;28;20382;-65
2022/06/04 11:10:43;;;;;;;3.57;2.20;;;24.50;56.10;;;;;;5087288;28;20510;-66
2022/06/04 11:13:21;;;;;;;3.03;2.50;;;24.50;56.20;;;;;;5104253;28;20855;-65
2022/06/04 11:15:59;;;;;;;4.80;2.50;;;24.50;57.10;;;;;;5098247;28;20402;-66
2022/06/04 11:18:32;;;;;;;3.92;2.80;;;24.50;58.40;;;;;;5081390;28;20389;-66
2022/06/04 11:21:15;;;;;;;5.73;2.70;;;24.60;58.10;;;;;;5101869;28;20435;-66
2022/06/04 11:23:40;;;;;;;3.95;2.85;;;24.60;57.70;;;;;;5101181;28;20431;-66
2022/06/04 11:26:37;;;;;;;4.38;2.58;;;24.70;57.60;;;;;;5096228;28;20412;-66
2022/06/04 11:29:04;;;;;;;4.50;3.00;;;24.70;57.20;;;;;;5099832;28;20390;-66
2022/06/04 11:31:40;;;;;;;5.13;2.90;;;24.60;57.10;;;;;;5100945;28;20400;-65
2022/06/04 11:34:37;;;;;;;4.13;2.70;;;24.60;57.00;;;;;;5098409;28;20412;-66
2022/06/04 11:37:39;;;;;;;3.50;2.60;;;24.60;57.00;;;;;;5096901;28;20378;-66
2022/06/04 11:40:33;;;;;;;3.80;2.78;;;24.60;56.80;;;;;;5100948;28;20465;-66
2022/06/04 11:43:00;;;;;;;4.20;2.78;;;24.60;56.70;;;;;;5104652;28;20384;-66
2022/06/04 11:46:03;;;;;;;5.28;2.78;;;24.60;56.50;;;;;;5084996;28;20436;-66
2022/06/04 11:48:40;;;;;;;4.10;2.80;;;24.60;56.70;;;;;;5102154;28;20378;-66
2022/06/04 11:51:24;;;;;;;4.87;2.87;;;24.60;56.60;;;;;;5099673;28;20472;-66
2022/06/04 11:54:28;;;;;;;3.10;2.78;;;24.60;56.60;;;;;;5100076;28;20404;-66
2022/06/04 11:56:53;;;;;;;4.32;2.90;;;24.60;56.50;;;;;;5103256;28;20418;-66
2022/06/04 11:59:33;;;;;;;3.40;2.70;;;24.60;56.70;;;;;;5102767;28;20867;-66
2022/06/04 12:02:11;;;;;;;4.18;2.60;;;24.70;56.50;;;;;;5102446;28;20417;-66
2022/06/04 12:04:58;;;;;;;4.33;2.80;;;24.70;57.30;;;;;;5102713;28;20458;-66
2022/06/04 12:07:46;;;;;;;4.18;3.10;;;24.60;56.90;;;;;;5096907;28;20380;-66
2022/06/04 12:10:40;;;;;;;5.63;2.80;;;24.70;57.40;;;;;;5099144;28;20424;-66
2022/06/04 12:13:16;;;;;;;5.80;3.35;;;24.70;57.10;;;;;;5100839;28;20435;-67
2022/06/04 12:15:54;;;;;;;6.45;3.47;;;24.70;57.00;;;;;;5100462;28;20858;-66
2022/06/04 12:18:38;;;;;;;5.90;2.97;;;24.70;57.40;;;;;;5100128;28;20385;-66
2022/06/04 12:24:16;;;;;;;5.28;2.83;;;24.70;57.80;;;;;;5111358;28;20440;-66
2022/06/04 12:26:48;;;;;;;8.18;3.15;;;24.70;57.40;;;;;;5113276;28;20388;-66
2022/06/04 12:29:31;;;;;;;7.50;3.30;;;24.70;58.30;;;;;;5106130;28;20909;-66
2022/06/04 12:32:01;;;;;;;8.15;3.90;;;24.80;57.80;;;;;;5076142;28;20917;-66
2022/06/04 12:34:27;;;;;;;10.40;5.05;;;24.90;58.00;;;;;;5093094;28;20886;-65
2022/06/04 12:36:54;;;;;;;11.17;5.00;;;24.90;58.60;;;;;;5091715;28;20391;-65
2022/06/04 12:39:37;;;;;;;8.93;4.13;;;24.90;58.60;;;;;;5092866;28;20389;-65
2022/06/04 12:42:13;;;;;;;14.10;4.57;;;24.90;58.20;;;;;;5091772;28;20387;-66
2022/06/04 12:44:53;;;;;;;9.00;4.10;;;24.80;58.20;;;;;;5093248;28;20382;-66
2022/06/04 12:47:26;;;;;;;9.52;3.85;;;24.90;57.90;;;;;;5093285;28;20405;-65
2022/06/04 12:50:01;;;;;;;9.07;3.67;;;24.80;57.90;;;;;;5091929;28;20417;-65
2022/06/04 12:52:44;;;;;;;10.15;3.85;;;24.80;57.90;;;;;;5092281;28;20435;-65
2022/06/04 12:55:27;;;;;;;7.32;3.80;;;24.80;57.30;;;;;;5092720;28;20473;-65
2022/06/04 12:58:14;;;;;;;9.48;3.67;;;24.80;57.60;;;;;;5091349;28;20477;-65
2022/06/04 13:00:42;;;;;;;9.13;3.80;;;24.80;57.60;;;;;;5091517;28;20401;-65
2022/06/04 13:03:07;;;;;;;7.23;3.80;;;24.80;57.60;;;;;;5092903;28;20378;-65
2022/06/04 13:05:59;;;;;;;6.03;3.67;;;24.80;57.60;;;;;;5092467;28;20389;-65
2022/06/04 13:08:36;;;;;;;8.45;4.00;;;24.80;57.10;;;;;;5092243;28;20387;-65
2022/06/04 13:11:02;;;;;;;7.57;3.80;;;24.80;57.50;;;;;;5092710;28;20417;-65
2022/06/04 13:13:57;;;;;;;7.15;3.47;;;24.80;57.40;;;;;;5092792;28;20379;-65
2022/06/04 13:16:27;;;;;;;11.00;4.22;;;24.80;57.40;;;;;;5092299;28;20374;-65
2022/06/04 13:19:08;;;;;;;5.70;3.30;;;24.80;57.40;;;;;;5092531;28;20370;-65
2022/06/04 13:21:41;;;;;;;8.48;3.92;;;24.80;57.40;;;;;;5092351;28;20385;-65
2022/06/04 13:24:19;;;;;;;6.53;3.70;;;24.90;57.30;;;;;;5092492;28;20377;-65
2022/06/04 13:26:54;;;;;;;7.35;3.50;;;24.80;57.20;;;;;;5092400;28;20402;-65
2022/06/04 13:29:27;;;;;;;6.15;3.45;;;24.80;57.80;;;;;;5092347;28;20426;-65
2022/06/04 13:31:59;;;;;;;5.90;3.60;;;24.80;57.10;;;;;;5091803;28;20390;-65